Pyle, United Kingdom
Current Conditions -  °F | °C
As of 1:50 PM on Monday 22 Dec 2014 (Local Time) from EGDX Reporting Station
Light Rain Light Rain  
Wind Chill: 52°   Ceiling: 1200
Heat Index: 52°   Visibility: 6mi
Dew Point: 50°   Wind: 25mph
Humidity: 94%   Direction: 250°WSW
Pressure: 30.06"   Gusts: NA
Location:  51.52°N, 3.7°W
Report Text: EGDX 221350Z 25022KT 9999 -RA BKN012 11/10 Q1018 GRN
Loading
Personal Weather Stations






























Interactive Weather Map New forecast layout! Learn more

10-Day Weather Forecast

Advertisements
Track Severe Weather on mobile